This is the latest recevied weather packets stored in our database for station/object JA3YAI-13. If no packets are shown the sender has not sent any weather packets the latest 10 day(s).
| Time | Temp. | Humidity | Pressure | Rain* | Wind** | Luminosity | Snow |
|---|---|---|---|---|---|---|---|
| 1777986384 | 16.67° C | 73% | 1012.9 hPa | 0 mm | - | - | - |
| 1777985784 | 16.11° C | 74% | 1013.1 hPa | 0 mm | - | - | - |
| 1777985184 | 16.67° C | 74% | 1012.9 hPa | 0 mm | - | - | - |
| 1777984585 | 16.11° C | 74% | 1012.9 hPa | 0 mm | - | - | - |
| 1777983985 | 16.11° C | 73% | 1012.8 hPa | 0 mm | - | - | - |
| 1777983385 | 15.56° C | 73% | 1012.7 hPa | 0 mm | - | - | - |
| 1777982784 | 15.56° C | 71% | 1012.6 hPa | 0 mm | - | - | - |
| 1777982184 | 15.56° C | 71% | 1012.6 hPa | 0 mm | - | - | - |
| 1777981584 | 15.56° C | 72% | 1012.6 hPa | 0 mm | - | - | - |
| 1777980985 | 15.56° C | 72% | 1012.4 hPa | 0 mm | - | - | - |
| 1777980385 | 14.44° C | 77% | 1012.2 hPa | 0 mm | - | - | - |
| 1777979784 | 13.89° C | 79% | 1012.2 hPa | 0 mm | - | - | - |
| 1777979184 | 13.89° C | 79% | 1012.1 hPa | 0 mm | - | - | - |
| 1777978584 | 13.89° C | 78% | 1012 hPa | 0 mm | - | - | - |
| 1777977985 | 14.44° C | 77% | 1012 hPa | 0 mm | - | - | - |
| 1777977385 | 13.89° C | 76% | 1012 hPa | 0 mm | - | - | - |
| 1777976784 | 13.89° C | 74% | 1012 hPa | 0 mm | - | - | - |
| 1777976184 | 14.44° C | 72% | 1012 hPa | 0 mm | - | - | - |
| 1777975584 | 15° C | 68% | 1011.9 hPa | 0 mm | - | - | - |
| 1777974985 | 15.56° C | 62% | 1011.5 hPa | 0 mm | - | - | - |
| 1777974385 | 17.22° C | 58% | 1011.6 hPa | 0 mm | - | - | - |
| 1777973785 | 17.78° C | 54% | 1011.7 hPa | 0 mm | - | - | - |
| 1777973184 | 18.33° C | 50% | 1011.5 hPa | 0 mm | - | - | - |
| 1777972584 | 18.33° C | 46% | 1011.5 hPa | 0 mm | - | - | - |
| 1777971985 | 18.89° C | 44% | 1011.6 hPa | 0 mm | - | - | - |
* Rain latest hour (hover to see other rain measurements)
** Current wind speed in m/s (hover to see current wind gust speed)